Time;durP1;ratioP1;P1;durP2;ratioP2;P2;SDS_P1;SDS_P2;PMS_P1;PMS_P2;Temp;Humidity;BMP_temperature;BMP_pressure;BME280_temperature;BME280_humidity;BME280_pressure;Samples;Min_cycle;Max_cycle;Signal;HPM_P1;HPM_P2
2023/11/22 00:00:59;;;;;;;11.40;10.20;;;;;;;-1.61;100.00;99185.33;109620;1251;67635;-68
2023/11/22 00:03:26;;;;;;;12.50;10.70;;;;;;;-1.61;100.00;99182.01;109653;1251;72430;-69
2023/11/22 00:05:52;;;;;;;11.50;9.70;;;;;;;-1.61;100.00;99181.86;109651;1250;59955;-67
2023/11/22 00:08:19;;;;;;;10.60;9.00;;;;;;;-1.62;100.00;99185.23;109658;1250;60286;-70
2023/11/22 00:10:45;;;;;;;12.60;10.20;;;;;;;-1.65;100.00;99187.36;109637;1251;73350;-68
2023/11/22 00:13:12;;;;;;;12.60;10.20;;;;;;;-1.68;100.00;99193.84;109659;1251;58970;-69
2023/11/22 00:15:39;;;;;;;11.10;9.80;;;;;;;-1.70;100.00;99197.59;109607;1250;59240;-67
2023/11/22 00:18:05;;;;;;;10.80;9.60;;;;;;;-1.70;100.00;99201.25;109639;1251;58903;-71
2023/11/22 00:20:33;;;;;;;11.40;10.10;;;;;;;-1.69;100.00;99199.08;109629;1251;60044;-69
2023/11/22 00:23:00;;;;;;;15.20;10.90;;;;;;;-1.68;100.00;99192.59;109620;1251;73302;-69
2023/11/22 00:25:27;;;;;;;12.20;9.30;;;;;;;-1.66;100.00;99193.13;109679;1251;67682;-70
2023/11/22 00:27:55;;;;;;;9.00;8.10;;;;;;;-1.63;100.00;99204.63;109598;1250;71179;-68
2023/11/22 00:30:23;;;;;;;11.30;8.90;;;;;;;-1.63;100.00;99210.89;109535;1251;59354;-69
2023/11/22 00:32:51;;;;;;;13.50;9.90;;;;;;;-1.63;100.00;99206.72;109608;1251;60021;-69
2023/11/22 00:35:18;;;;;;;9.50;8.50;;;;;;;-1.62;100.00;99208.71;109631;1251;73394;-70
2023/11/22 00:37:44;;;;;;;9.30;7.70;;;;;;;-1.63;100.00;99209.84;109637;1250;68038;-69
2023/11/22 00:40:11;;;;;;;10.40;8.70;;;;;;;-1.67;100.00;99215.81;109628;1255;59030;-70
2023/11/22 00:42:39;;;;;;;9.70;8.50;;;;;;;-1.67;100.00;99218.48;109656;1251;59684;-70
2023/11/22 00:45:06;;;;;;;11.30;8.80;;;;;;;-1.71;100.00;99223.59;109649;1251;60164;-70
2023/11/22 00:47:33;;;;;;;10.40;8.00;;;;;;;-1.72;100.00;99232.01;109654;1251;74779;-69
2023/11/22 00:50:01;;;;;;;9.10;7.60;;;;;;;-1.73;100.00;99232.73;109609;1251;67748;-67
2023/11/22 00:52:28;;;;;;;11.90;8.40;;;;;;;-1.71;100.00;99235.92;109572;1251;71620;-68
2023/11/22 00:54:55;;;;;;;7.50;6.20;;;;;;;-1.70;100.00;99242.84;109659;1251;59039;-68
2023/11/22 00:57:21;;;;;;;7.10;6.00;;;;;;;-1.74;100.00;99242.73;109705;1251;58959;-69
2023/11/22 00:59:48;;;;;;;9.70;6.50;;;;;;;-1.80;100.00;99240.84;109655;1251;59396;-66
2023/11/22 01:02:14;;;;;;;10.20;7.30;;;;;;;-1.83;100.00;99243.15;109672;1251;59049;-67
2023/11/22 01:04:41;;;;;;;11.90;8.00;;;;;;;-1.84;100.00;99239.73;109632;1251;72662;-67
2023/11/22 01:07:07;;;;;;;11.20;7.00;;;;;;;-1.84;100.00;99238.01;109576;1250;59038;-69
2023/11/22 01:09:34;;;;;;;12.50;8.90;;;;;;;-1.89;100.00;99240.74;109675;1252;58984;-70
2023/11/22 01:12:01;;;;;;;8.70;6.80;;;;;;;-1.97;100.00;99243.67;109662;1251;74435;-65
2023/11/22 01:14:28;;;;;;;9.50;6.80;;;;;;;-2.04;100.00;99247.60;109659;1251;67890;-68
2023/11/22 01:16:55;;;;;;;10.40;7.20;;;;;;;-2.09;100.00;99252.48;109598;1251;72904;-65
2023/11/22 01:19:21;;;;;;;10.60;6.20;;;;;;;-2.09;100.00;99258.05;109670;1251;59924;-70
2023/11/22 01:21:48;;;;;;;6.20;5.20;;;;;;;-2.10;100.00;99255.99;109577;1254;58882;-66
2023/11/22 01:24:15;;;;;;;7.40;5.20;;;;;;;-2.11;100.00;99261.29;109698;1251;74352;-68
2023/11/22 01:26:41;;;;;;;6.00;5.20;;;;;;;-2.14;100.00;99264.09;109683;1251;59022;-68
2023/11/22 01:29:08;;;;;;;6.20;5.10;;;;;;;-2.18;100.00;99267.67;109574;1252;71235;-67
2023/11/22 01:31:34;;;;;;;5.40;4.80;;;;;;;-2.22;100.00;99271.38;109600;1250;58976;-66
2023/11/22 01:34:01;;;;;;;4.80;4.40;;;;;;;-2.28;100.00;99272.27;109621;1252;60192;-70
2023/11/22 01:36:28;;;;;;;4.80;4.30;;;;;;;-2.32;100.00;99270.45;109639;1251;74130;-67
2023/11/22 01:38:55;;;;;;;4.80;3.70;;;;;;;-2.36;100.00;99272.91;109699;1251;65871;-67
2023/11/22 01:41:22;;;;;;;4.90;4.50;;;;;;;-2.39;100.00;99272.44;109638;1251;72423;-68
2023/11/22 01:43:50;;;;;;;4.10;3.70;;;;;;;-2.42;100.00;99272.29;109609;1251;58965;-67
2023/11/22 01:46:26;;;;;;;4.80;4.20;;;;;;;-2.43;100.00;99277.02;109647;1250;59081;-66
2023/11/22 01:48:52;;;;;;;;;;;;;;;-2.41;100.00;99280.90;109619;1251;74404;-69
2023/11/22 01:51:22;;;;;;;6.40;4.80;;;;;;;-2.43;100.00;99281.34;109693;1250;66403;-68
2023/11/22 01:53:49;;;;;;;5.30;4.70;;;;;;;-2.46;100.00;99282.95;109634;1250;71538;-66
2023/11/22 01:56:17;;;;;;;5.60;5.10;;;;;;;-2.48;100.00;99287.27;109544;1251;61018;-68
2023/11/22 01:58:44;;;;;;;7.00;5.20;;;;;;;-2.50;100.00;99287.70;109465;1251;60336;-69
2023/11/22 02:01:11;;;;;;;5.90;5.00;;;;;;;-2.48;100.00;99289.66;109574;1251;74437;-70
2023/11/22 02:03:39;;;;;;;5.60;5.10;;;;;;;-2.49;100.00;99283.81;109520;1251;66723;-67
2023/11/22 02:06:06;;;;;;;6.60;5.30;;;;;;;-2.50;100.00;99287.87;109685;1251;72689;-67
2023/11/22 02:08:32;;;;;;;6.30;5.00;;;;;;;-2.53;100.00;99289.23;109697;1251;58986;-70
2023/11/22 02:10:59;;;;;;;6.00;5.40;;;;;;;-2.53;100.00;99286.34;109676;1250;60609;-68
2023/11/22 02:13:30;;;;;;;9.40;6.10;;;;;;;-2.54;100.00;99286.51;109652;1254;74435;-69
2023/11/22 02:15:58;;;;;;;9.90;6.40;;;;;;;-2.54;100.00;99280.30;109712;1251;67253;-70
2023/11/22 02:18:25;;;;;;;7.20;5.90;;;;;;;-2.56;100.00;99279.70;109623;1251;72624;-70
2023/11/22 02:20:52;;;;;;;10.90;6.20;;;;;;;-2.58;100.00;99275.53;109575;1252;59020;-67
2023/11/22 02:23:19;;;;;;;13.10;6.90;;;;;;;-2.59;100.00;99274.88;109598;1250;58899;-67
2023/11/22 02:25:45;;;;;;;7.20;6.50;;;;;;;-2.61;100.00;99272.19;109692;1251;72586;-69
2023/11/22 02:28:12;;;;;;;11.90;7.90;;;;;;;-2.61;100.00;99268.20;109599;1251;67857;-71
2023/11/22 02:30:38;;;;;;;15.20;8.10;;;;;;;-2.62;100.00;99265.70;109584;1254;59633;-67
2023/11/22 02:33:05;;;;;;;8.10;6.70;;;;;;;-2.65;100.00;99265.00;109624;1251;59045;-71
2023/11/22 02:35:32;;;;;;;9.10;7.60;;;;;;;-2.66;100.00;99274.12;109564;1254;60348;-68
2023/11/22 02:37:59;;;;;;;10.60;7.20;;;;;;;-2.64;100.00;99281.42;109643;1251;73480;-70
2023/11/22 02:40:27;;;;;;;11.30;6.90;;;;;;;-2.62;100.00;99287.20;109633;1251;66781;-67
2023/11/22 02:42:53;;;;;;;12.30;7.30;;;;;;;-2.62;100.00;99294.34;109576;1251;72723;-67
2023/11/22 02:45:26;;;;;;;9.80;8.00;;;;;;;-2.65;100.00;99296.73;109621;1251;59492;-68
2023/11/22 02:47:53;;;;;;;11.40;7.60;;;;;;;-2.68;100.00;99301.64;109595;1251;60066;-69
2023/11/22 02:50:20;;;;;;;8.50;7.40;;;;;;;-2.71;100.00;99301.48;109593;1251;74351;-68
2023/11/22 02:52:46;;;;;;;9.60;7.90;;;;;;;-2.71;100.00;99307.01;109657;1251;65461;-69
2023/11/22 02:55:14;;;;;;;8.00;7.20;;;;;;;-2.69;100.00;99304.98;109653;1252;58985;-66
2023/11/22 02:57:41;;;;;;;11.10;8.10;;;;;;;-2.64;100.00;99308.00;109559;1251;59485;-67
2023/11/22 03:00:09;;;;;;;11.30;8.30;;;;;;;-2.60;100.00;99314.18;109633;1251;59006;-68
2023/11/22 03:02:37;;;;;;;9.50;8.60;;;;;;;-2.61;100.00;99314.55;109661;1251;74652;-68
2023/11/22 03:05:04;;;;;;;8.40;7.60;;;;;;;-2.66;100.00;99314.38;109678;1251;66616;-68
2023/11/22 03:07:30;;;;;;;11.50;8.70;;;;;;;-2.71;100.00;99314.69;109620;1251;72321;-68
2023/11/22 03:10:00;;;;;;;10.90;8.40;;;;;;;-2.77;100.00;99320.25;109647;1251;61044;-68
2023/11/22 03:12:27;;;;;;;8.70;7.80;;;;;;;-2.83;100.00;99315.41;109646;1251;60436;-67
2023/11/22 03:14:58;;;;;;;9.90;8.70;;;;;;;-2.87;100.00;99315.29;109635;1250;73473;-67
2023/11/22 03:17:25;;;;;;;10.20;8.60;;;;;;;-2.88;100.00;99318.81;109604;1251;68440;-67
2023/11/22 03:19:51;;;;;;;11.00;8.50;;;;;;;-2.90;100.00;99325.36;109614;1251;58993;-67
2023/11/22 03:22:18;;;;;;;10.90;9.50;;;;;;;-2.94;100.00;99329.21;109636;1251;59504;-67
2023/11/22 03:24:44;;;;;;;10.70;9.60;;;;;;;-2.95;100.00;99335.73;109587;1251;60245;-69
2023/11/22 03:27:11;;;;;;;11.00;8.90;;;;;;;-2.95;100.00;99338.69;109628;1251;74435;-67
2023/11/22 03:29:38;;;;;;;10.50;9.20;;;;;;;-2.96;100.00;99338.07;109637;1251;66947;-68
2023/11/22 03:32:05;;;;;;;10.80;8.10;;;;;;;-2.99;100.00;99341.88;109497;1251;59146;-66
2023/11/22 03:34:31;;;;;;;10.70;9.00;;;;;;;-3.02;100.00;99341.86;109681;1251;59578;-68
2023/11/22 03:36:58;;;;;;;11.00;9.40;;;;;;;-3.01;100.00;99336.61;109556;1251;58904;-66
2023/11/22 03:39:25;;;;;;;11.10;9.40;;;;;;;-2.98;100.00;99340.77;109655;1251;59932;-70
2023/11/22 03:41:51;;;;;;;10.70;9.60;;;;;;;-2.97;100.00;99350.61;109667;1251;67733;-69
2023/11/22 03:44:18;;;;;;;10.40;9.40;;;;;;;-3.00;100.00;99354.05;109636;1252;71428;-67
2023/11/22 03:46:44;;;;;;;10.60;9.40;;;;;;;-2.98;100.00;99361.97;109615;1251;59195;-69
2023/11/22 03:49:11;;;;;;;11.60;9.40;;;;;;;-2.98;100.00;99361.78;109629;1251;60272;-68
2023/11/22 03:51:38;;;;;;;11.10;9.80;;;;;;;-3.00;100.00;99365.68;109630;1250;74700;-68
2023/11/22 03:54:05;;;;;;;10.50;9.20;;;;;;;-2.98;100.00;99368.20;109638;1251;66499;-68
2023/11/22 03:56:32;;;;;;;10.70;9.30;;;;;;;-2.95;100.00;99368.88;109643;1251;71560;-69
2023/11/22 03:58:58;;;;;;;13.90;9.90;;;;;;;-2.93;100.00;99369.82;109615;1251;59349;-67
2023/11/22 04:01:25;;;;;;;11.00;9.90;;;;;;;-2.92;100.00;99370.97;109643;1251;59049;-67
2023/11/22 04:03:52;;;;;;;12.50;10.70;;;;;;;-2.95;100.00;99372.50;109640;1251;73238;-67
2023/11/22 04:06:22;;;;;;;12.30;10.40;;;;;;;-2.98;100.00;99373.03;109612;1251;67957;-68
2023/11/22 04:08:49;;;;;;;11.40;9.90;;;;;;;-3.02;100.00;99378.64;109568;1251;72663;-67
2023/11/22 04:11:17;;;;;;;13.20;10.40;;;;;;;-3.01;100.00;99387.83;109555;1251;61199;-65
2023/11/22 04:13:44;;;;;;;12.00;10.40;;;;;;;-3.01;100.00;99392.98;109618;1250;59136;-69
2023/11/22 04:16:14;;;;;;;12.30;9.70;;;;;;;-2.98;100.00;99400.12;109659;1250;73104;-67
2023/11/22 04:18:41;;;;;;;11.40;10.20;;;;;;;-2.95;100.00;99403.39;109639;1251;67776;-67
2023/11/22 04:21:08;;;;;;;12.70;9.10;;;;;;;-2.94;100.00;99414.95;109608;1251;72533;-68
2023/11/22 04:23:35;;;;;;;13.40;10.90;;;;;;;-2.96;100.00;99422.02;109589;1251;59340;-66
2023/11/22 04:26:02;;;;;;;18.80;11.10;;;;;;;-2.97;100.00;99431.13;109640;1251;59553;-66
2023/11/22 04:28:31;;;;;;;16.60;11.30;;;;;;;-2.99;100.00;99432.65;109675;1251;74817;-68
2023/11/22 04:30:58;;;;;;;18.80;12.00;;;;;;;-2.99;100.00;99429.50;109621;1251;67164;-66
2023/11/22 04:33:27;;;;;;;18.70;11.70;;;;;;;-3.01;100.00;99431.16;109618;1251;71256;-66
2023/11/22 04:35:54;;;;;;;17.70;11.20;;;;;;;-3.01;100.00;99434.66;109656;1251;59296;-68
2023/11/22 04:38:20;;;;;;;20.60;11.40;;;;;;;-3.04;100.00;99444.88;109661;1251;59405;-69
2023/11/22 04:40:47;;;;;;;17.20;10.30;;;;;;;-3.08;100.00;99444.77;109668;1251;59360;-69
2023/11/22 04:43:14;;;;;;;15.80;11.30;;;;;;;-3.11;100.00;99441.47;109653;1250;68011;-69
2023/11/22 04:45:40;;;;;;;24.50;11.40;;;;;;;-3.14;100.00;99444.75;109577;1254;72409;-68
2023/11/22 04:48:07;;;;;;;12.70;10.20;;;;;;;-3.15;100.00;99452.25;109720;1251;61170;-65
2023/11/22 04:50:33;;;;;;;22.60;10.60;;;;;;;-3.15;100.00;99462.65;109616;1251;60414;-67
2023/11/22 04:53:01;;;;;;;17.70;11.00;;;;;;;-3.11;100.00;99463.11;109670;1251;74367;-67
2023/11/22 04:55:29;;;;;;;14.00;9.60;;;;;;;-3.09;100.00;99459.58;109628;1251;67945;-69
2023/11/22 04:57:55;;;;;;;11.80;8.80;;;;;;;-3.10;100.00;99462.91;109593;1251;71370;-67
2023/11/22 05:00:22;;;;;;;11.70;8.20;;;;;;;-3.10;100.00;99466.75;109663;1251;60065;-69
2023/11/22 05:02:49;;;;;;;9.40;8.40;;;;;;;-3.12;100.00;99471.89;109623;1251;60001;-65
2023/11/22 05:05:16;;;;;;;11.50;8.20;;;;;;;-3.15;100.00;99475.50;109626;1251;74538;-61
2023/11/22 05:07:44;;;;;;;10.70;8.50;;;;;;;-3.17;100.00;99482.07;109633;1251;67718;-63
2023/11/22 05:10:11;;;;;;;11.40;8.50;;;;;;;-3.20;100.00;99486.70;109661;1251;71527;-61
2023/11/22 05:12:38;;;;;;;10.60;7.90;;;;;;;-3.21;100.00;99494.19;109624;1251;59691;-69
2023/11/22 05:15:08;;;;;;;9.10;8.20;;;;;;;-3.19;100.00;99496.56;109626;1251;60271;-68
2023/11/22 05:17:35;;;;;;;10.90;8.80;;;;;;;-3.21;100.00;99499.06;109685;1251;74552;-69
2023/11/22 05:20:01;;;;;;;18.30;9.20;;;;;;;-3.25;100.00;99505.89;109667;1251;66473;-66
2023/11/22 05:22:28;;;;;;;17.40;8.80;;;;;;;-3.30;100.00;99504.45;109579;1250;70612;-71
2023/11/22 05:24:56;;;;;;;12.60;8.70;;;;;;;-3.35;100.00;99504.38;109531;1251;61555;-66
2023/11/22 05:27:22;;;;;;;11.00;7.30;;;;;;;-3.38;100.00;99505.77;109658;1251;58879;-64
2023/11/22 05:29:49;;;;;;;9.90;6.40;;;;;;;-3.37;100.00;99509.70;109695;1251;73427;-66
2023/11/22 05:32:21;;;;;;;12.60;7.30;;;;;;;-3.34;100.00;99517.17;109634;1250;67787;-68
2023/11/22 05:34:48;;;;;;;11.00;6.70;;;;;;;-3.35;100.00;99520.48;109597;1251;72478;-65
2023/11/22 05:37:15;;;;;;;11.30;7.10;;;;;;;-3.36;100.00;99529.22;109675;1251;59614;-74
2023/11/22 05:39:41;;;;;;;9.50;7.00;;;;;;;-3.37;100.00;99536.41;109655;1251;58862;-69
2023/11/22 05:42:08;;;;;;;8.60;6.80;;;;;;;-3.40;100.00;99542.14;109742;1251;74624;-72
2023/11/22 05:44:34;;;;;;;10.90;6.80;;;;;;;-3.44;100.00;99543.20;109656;1251;66533;-72
2023/11/22 05:47:01;;;;;;;9.00;6.40;;;;;;;-3.46;100.00;99549.19;109644;1251;72507;-72
2023/11/22 05:49:28;;;;;;;12.50;6.30;;;;;;;-3.47;100.00;99553.44;109650;1250;60071;-69
2023/11/22 05:51:54;;;;;;;10.00;6.60;;;;;;;-3.48;100.00;99554.15;109643;1254;59280;-69
2023/11/22 05:54:21;;;;;;;6.60;5.60;;;;;;;-3.46;100.00;99554.92;109672;1251;59435;-70
2023/11/22 05:56:47;;;;;;;6.10;5.20;;;;;;;-3.48;100.00;99560.39;109601;1250;59082;-69
2023/11/22 05:59:14;;;;;;;7.40;6.10;;;;;;;-3.51;100.00;99567.00;109665;1251;71287;-68
2023/11/22 06:01:40;;;;;;;8.90;5.80;;;;;;;-3.53;100.00;99573.70;109491;1253;59006;-69
2023/11/22 06:04:09;;;;;;;15.80;6.20;;;;;;;-3.54;100.00;99579.63;109625;1251;58937;-68
2023/11/22 06:06:36;;;;;;;11.70;6.10;;;;;;;-3.55;100.00;99580.20;109665;1250;74659;-69
2023/11/22 06:09:05;;;;;;;9.80;5.70;;;;;;;-3.53;100.00;99584.61;109617;1251;67696;-69
2023/11/22 06:11:31;;;;;;;10.30;5.60;;;;;;;-3.51;100.00;99588.84;109594;1251;72281;-69
2023/11/22 06:13:58;;;;;;;7.10;5.20;;;;;;;-3.50;100.00;99593.62;109586;1250;60174;-65
2023/11/22 06:16:25;;;;;;;9.30;5.30;;;;;;;-3.47;100.00;99593.63;109653;1250;59026;-67
2023/11/22 06:18:51;;;;;;;9.40;5.50;;;;;;;-3.45;100.00;99600.98;109668;1251;59588;-69
2023/11/22 06:21:18;;;;;;;6.50;5.20;;;;;;;-3.43;100.00;99604.70;109690;1250;59161;-69
2023/11/22 06:23:45;;;;;;;6.70;5.50;;;;;;;-3.43;100.00;99606.45;109596;1251;72493;-70
2023/11/22 06:26:12;;;;;;;12.50;5.80;;;;;;;-3.45;100.00;99608.45;109647;1251;61657;-71
2023/11/22 06:28:38;;;;;;;13.30;5.90;;;;;;;-3.46;100.00;99614.05;109649;1250;59002;-72
2023/11/22 06:31:05;;;;;;;13.90;6.00;;;;;;;-3.47;100.00;99611.70;109674;1250;59237;-71
2023/11/22 06:33:31;;;;;;;7.20;5.80;;;;;;;-3.49;100.00;99609.86;109674;1251;58964;-71
2023/11/22 06:35:58;;;;;;;9.20;5.30;;;;;;;-3.51;100.00;99607.18;109658;1250;59414;-73
2023/11/22 06:38:24;;;;;;;8.10;5.00;;;;;;;-3.51;100.00;99612.08;109671;1251;58889;-77
2023/11/22 06:40:51;;;;;;;7.70;4.40;;;;;;;-3.52;100.00;99620.05;109504;1251;59214;-69
2023/11/22 06:43:17;;;;;;;5.20;4.50;;;;;;;-3.51;100.00;99628.37;109602;1251;74527;-69
2023/11/22 06:45:44;;;;;;;9.40;5.10;;;;;;;-3.54;100.00;99632.34;109649;1251;67655;-69
2023/11/22 06:48:11;;;;;;;6.20;4.90;;;;;;;-3.58;100.00;99632.02;109654;1250;72462;-69
2023/11/22 06:50:39;;;;;;;5.00;4.50;;;;;;;-3.60;100.00;99633.50;109515;1251;59802;-69
2023/11/22 06:53:06;;;;;;;4.70;4.10;;;;;;;-3.62;100.00;99638.98;109510;1251;59876;-69
2023/11/22 06:55:33;;;;;;;6.10;4.70;;;;;;;-3.62;100.00;99641.44;109521;1251;73195;-69
2023/11/22 06:57:59;;;;;;;5.20;4.40;;;;;;;-3.61;100.00;99645.89;109472;1250;66486;-70
2023/11/22 07:00:27;;;;;;;6.00;4.80;;;;;;;-3.61;100.00;99651.06;109472;1251;72586;-69
2023/11/22 07:02:54;;;;;;;5.40;4.90;;;;;;;-3.60;100.00;99656.23;109487;1250;60020;-69
2023/11/22 07:05:20;;;;;;;7.50;5.10;;;;;;;-3.58;100.00;99662.00;109572;1250;60354;-70
2023/11/22 07:07:49;;;;;;;6.50;5.60;;;;;;;-3.54;100.00;99658.00;109673;1250;74598;-69
2023/11/22 07:10:16;;;;;;;5.40;4.90;;;;;;;-3.51;100.00;99661.48;109648;1251;66129;-70
2023/11/22 07:12:43;;;;;;;7.40;5.90;;;;;;;-3.47;100.00;99660.58;109648;1250;72610;-69
2023/11/22 07:15:10;;;;;;;6.80;5.20;;;;;;;-3.41;100.00;99661.30;109587;1250;58939;-69
2023/11/22 07:17:36;;;;;;;4.90;4.30;;;;;;;-3.36;100.00;99667.13;109646;1251;59348;-69
2023/11/22 07:20:08;;;;;;;5.70;4.90;;;;;;;-3.31;100.00;99673.09;109519;1251;74648;-71
2023/11/22 07:22:35;;;;;;;6.80;6.00;;;;;;;-3.28;100.00;99674.85;109643;1250;67900;-69
2023/11/22 07:25:02;;;;;;;6.70;5.90;;;;;;;-3.28;100.00;99683.88;109655;1251;72333;-68
2023/11/22 07:27:29;;;;;;;6.90;4.90;;;;;;;-3.30;100.00;99684.48;109632;1250;59347;-69
2023/11/22 07:29:55;;;;;;;7.00;5.80;;;;;;;-3.28;100.00;99685.92;109660;1250;59091;-69
2023/11/22 07:32:22;;;;;;;10.20;7.90;;;;;;;-3.26;100.00;99686.55;109656;1250;74472;-70
2023/11/22 07:34:49;;;;;;;10.60;7.50;;;;;;;-3.25;100.00;99689.25;109613;1251;67257;-69
2023/11/22 07:37:17;;;;;;;9.80;7.40;;;;;;;-3.24;100.00;99688.48;109608;1250;72954;-70
2023/11/22 07:39:44;;;;;;;8.70;7.00;;;;;;;-3.23;100.00;99683.96;109642;1251;59434;-70
2023/11/22 07:42:10;;;;;;;10.50;7.70;;;;;;;-3.24;100.00;99683.99;109639;1251;58910;-69
2023/11/22 07:44:37;;;;;;;10.00;6.10;;;;;;;-3.22;100.00;99685.82;109671;1250;59343;-69
2023/11/22 07:47:08;;;;;;;12.10;7.60;;;;;;;-3.22;100.00;99691.52;109694;1250;66254;-70
2023/11/22 07:49:38;;;;;;;7.10;5.50;;;;;;;-3.20;100.00;99698.38;109664;1250;70375;-69
2023/11/22 07:52:06;;;;;;;9.40;5.70;;;;;;;-3.19;100.00;99697.11;109579;1251;60288;-69
2023/11/22 07:54:33;;;;;;;4.80;3.80;;;;;;;-3.20;100.00;99699.19;109642;1251;61083;-69
2023/11/22 07:56:59;;;;;;;4.40;3.60;;;;;;;-3.21;100.00;99701.39;109615;1250;73174;-69
2023/11/22 07:59:26;;;;;;;4.20;3.20;;;;;;;-3.21;100.00;99702.91;109669;1250;67652;-70
2023/11/22 08:01:53;;;;;;;4.70;3.60;;;;;;;-3.17;100.00;99705.48;109612;1250;72392;-70
2023/11/22 08:04:20;;;;;;;4.60;3.40;;;;;;;-3.13;100.00;99702.17;109662;1250;59311;-70
2023/11/22 08:06:47;;;;;;;4.60;3.80;;;;;;;-3.13;100.00;99704.91;109680;1250;58967;-70
2023/11/22 08:09:16;;;;;;;3.80;3.10;;;;;;;-3.09;100.00;99705.60;109639;1250;74618;-69
2023/11/22 08:11:42;;;;;;;6.10;4.80;;;;;;;-3.07;100.00;99710.33;109621;1251;67849;-69
2023/11/22 08:14:09;;;;;;;4.70;3.50;;;;;;;-3.05;100.00;99705.58;109611;1251;72496;-69
2023/11/22 08:16:38;;;;;;;4.00;3.00;;;;;;;-3.05;100.00;99705.02;109617;1250;60128;-69
2023/11/22 08:19:05;;;;;;;3.60;3.20;;;;;;;-3.05;100.00;99706.44;109665;1250;59366;-70
2023/11/22 08:21:32;;;;;;;5.60;4.00;;;;;;;-3.03;100.00;99707.20;109651;1250;73969;-69
2023/11/22 08:23:59;;;;;;;5.60;4.00;;;;;;;-3.00;100.00;99706.34;109644;1250;65656;-69
2023/11/22 08:26:26;;;;;;;5.30;4.10;;;;;;;-2.96;100.00;99705.59;109673;1251;71481;-69
2023/11/22 08:28:54;;;;;;;3.90;3.20;;;;;;;-2.95;100.00;99712.65;109572;1250;61827;-72
2023/11/22 08:31:20;;;;;;;3.90;3.10;;;;;;;-2.94;100.00;99716.81;109602;1251;60159;-68
2023/11/22 08:33:47;;;;;;;3.40;2.50;;;;;;;-2.96;100.00;99723.34;109678;1250;74503;-69
2023/11/22 08:36:14;;;;;;;4.30;3.50;;;;;;;-2.98;100.00;99727.91;109596;1250;66909;-70
2023/11/22 08:38:44;;;;;;;3.40;3.00;;;;;;;-2.94;100.00;99734.48;109634;1250;71119;-70
2023/11/22 08:41:13;;;;;;;4.60;3.50;;;;;;;-2.92;100.00;99737.31;109622;1250;59028;-70
2023/11/22 08:43:40;;;;;;;5.30;3.90;;;;;;;-2.91;100.00;99739.71;109644;1250;60147;-70
2023/11/22 08:46:07;;;;;;;4.50;3.30;;;;;;;-2.90;100.00;99741.21;109634;1250;73268;-70
2023/11/22 08:48:41;;;;;;;3.50;2.90;;;;;;;-2.89;100.00;99745.68;109615;1250;67621;-70
2023/11/22 08:51:10;;;;;;;7.60;3.60;;;;;;;-2.90;100.00;99750.61;109628;1250;72689;-70
2023/11/22 08:53:36;;;;;;;3.90;3.10;;;;;;;-2.88;100.00;99752.57;109610;1250;59025;-70
2023/11/22 08:56:05;;;;;;;3.50;3.10;;;;;;;-2.90;100.00;99752.30;109681;1250;60130;-70
2023/11/22 08:58:33;;;;;;;4.30;3.60;;;;;;;-2.91;100.00;99750.30;109680;1250;74949;-70
2023/11/22 09:01:00;;;;;;;6.20;3.90;;;;;;;-2.89;100.00;99758.20;109694;1250;67523;-70
2023/11/22 09:03:27;;;;;;;5.40;4.00;;;;;;;-2.84;100.00;99755.65;109634;1250;72504;-70
2023/11/22 09:05:55;;;;;;;5.00;3.90;;;;;;;-2.78;100.00;99756.40;109600;1253;59326;-70
2023/11/22 09:08:21;;;;;;;7.50;5.10;;;;;;;-2.72;100.00;99755.89;109698;1250;60102;-70
2023/11/22 09:10:54;;;;;;;7.10;4.50;;;;;;;-2.67;100.00;99760.08;109662;1250;74695;-70
2023/11/22 09:13:22;;;;;;;10.20;6.00;;;;;;;-2.63;100.00;99760.06;109704;1250;66303;-70
2023/11/22 09:15:48;;;;;;;8.00;5.30;;;;;;;-2.60;100.00;99764.95;109635;1251;72427;-70
2023/11/22 09:18:15;;;;;;;13.10;7.50;;;;;;;-2.59;100.00;99761.43;109626;1251;60098;-70
2023/11/22 09:20:44;;;;;;;10.60;6.50;;;;;;;-2.62;100.00;99764.33;109653;1251;60181;-70
2023/11/22 09:23:11;;;;;;;13.10;8.10;;;;;;;-2.64;100.00;99766.89;109727;1250;74641;-70
2023/11/22 09:25:38;;;;;;;8.40;5.30;;;;;;;-2.65;100.00;99766.63;109698;1250;67683;-71
2023/11/22 09:28:07;;;;;;;4.40;3.50;;;;;;;-2.65;100.00;99764.54;109590;1251;72760;-70
2023/11/22 09:30:38;;;;;;;4.10;2.80;;;;;;;-2.62;100.00;99762.60;109562;1250;58996;-70
2023/11/22 09:33:07;;;;;;;2.60;2.30;;;;;;;-2.57;100.00;99770.33;109703;1250;60521;-71
2023/11/22 09:35:35;;;;;;;6.20;4.20;;;;;;;-2.54;100.00;99773.30;109598;1251;73759;-71
2023/11/22 09:38:03;;;;;;;8.50;5.00;;;;;;;-2.48;100.00;99774.93;109624;1251;67885;-71
2023/11/22 09:40:33;;;;;;;7.70;4.70;;;;;;;-2.44;100.00;99777.30;109653;1250;71263;-71
2023/11/22 09:43:02;;;;;;;5.30;3.50;;;;;;;-2.39;100.00;99776.02;109522;1251;60739;-71
2023/11/22 09:45:32;;;;;;;4.70;2.50;;;;;;;-2.32;100.00;99777.88;109609;1250;60098;-71
2023/11/22 09:48:00;;;;;;;7.70;4.90;;;;;;;-2.25;100.00;99777.14;109626;1250;73496;-71
2023/11/22 09:50:40;;;;;;;6.80;4.60;;;;;;;-2.21;100.00;99771.01;109541;1251;67950;-71
2023/11/22 09:53:11;;;;;;;7.60;4.80;;;;;;;-2.18;100.00;99775.88;109474;1250;209422;-70
2023/11/22 09:55:38;;;;;;;7.50;4.60;;;;;;;-2.12;100.00;99772.27;109626;1250;59032;-71
2023/11/22 09:58:04;;;;;;;4.90;3.40;;;;;;;-2.01;100.00;99772.16;109538;1251;59843;-71
2023/11/22 10:00:31;;;;;;;5.20;3.90;;;;;;;-1.93;100.00;99771.53;109599;1251;74639;-71
2023/11/22 10:02:58;;;;;;;6.60;5.20;;;;;;;-1.90;100.00;99769.25;109668;1250;66612;-70
2023/11/22 10:05:28;;;;;;;5.20;4.30;;;;;;;-1.87;100.00;99764.73;109627;1250;71340;-71
2023/11/22 10:07:55;;;;;;;8.00;4.80;;;;;;;-1.82;100.00;99758.75;109614;1250;59626;-71
2023/11/22 10:10:22;;;;;;;4.60;3.60;;;;;;;-1.76;100.00;99757.19;109648;1251;60672;-71
2023/11/22 10:12:49;;;;;;;5.30;3.70;;;;;;;-1.72;100.00;99761.79;109606;1251;74380;-71
2023/11/22 10:15:18;;;;;;;4.20;3.80;;;;;;;-1.70;100.00;99761.70;109594;1250;67409;-70
2023/11/22 10:17:57;;;;;;;5.60;4.60;;;;;;;-1.69;100.00;99763.75;109639;1251;72732;-71
2023/11/22 10:20:46;;;;;;;8.80;5.80;;;;;;;-1.73;100.00;99774.05;109630;1250;60146;-71
2023/11/22 10:23:14;;;;;;;10.70;7.00;;;;;;;-1.76;100.00;99785.52;109651;1250;58888;-71
2023/11/22 10:25:52;;;;;;;7.60;5.30;;;;;;;-1.78;100.00;99789.32;109655;1250;73997;-71
2023/11/22 10:28:19;;;;;;;6.90;4.70;;;;;;;-1.82;100.00;99799.09;109665;1250;66684;-71
2023/11/22 10:30:46;;;;;;;9.50;5.70;;;;;;;-1.89;100.00;99805.88;109600;1250;73637;-72
2023/11/22 10:33:15;;;;;;;5.50;4.40;;;;;;;-1.92;100.00;99812.67;109664;1250;59023;-71
2023/11/22 10:35:46;;;;;;;8.20;4.00;;;;;;;-1.92;100.00;99809.90;109407;1251;60211;-71
2023/11/22 10:38:16;;;;;;;5.30;3.50;;;;;;;-1.91;100.00;99811.38;109565;1250;73645;-71
2023/11/22 10:40:45;;;;;;;4.30;3.90;;;;;;;-1.87;100.00;99807.02;109535;1251;66587;-71
2023/11/22 10:43:12;;;;;;;5.00;3.90;;;;;;;-1.87;100.00;99803.89;109638;1250;73712;-71
2023/11/22 10:45:39;;;;;;;6.50;4.40;;;;;;;-1.89;100.00;99803.99;109574;1250;59303;-72
2023/11/22 10:48:08;;;;;;;5.10;4.60;;;;;;;-1.88;100.00;99808.30;109448;1251;60257;-71
2023/11/22 10:50:37;;;;;;;7.20;4.60;;;;;;;-1.88;100.00;99807.38;109584;1251;74697;-72
2023/11/22 10:53:06;;;;;;;4.30;3.90;;;;;;;-1.89;100.00;99805.70;109642;1250;67783;-72
2023/11/22 10:55:32;;;;;;;5.00;3.80;;;;;;;-1.91;100.00;99804.27;109586;1250;72586;-69
2023/11/22 10:58:02;;;;;;;4.30;3.30;;;;;;;-1.95;100.00;99802.56;109631;1250;59124;-69
2023/11/22 11:00:32;;;;;;;6.10;3.60;;;;;;;-1.98;100.00;99800.14;109636;1250;60365;-70
2023/11/22 11:02:59;;;;;;;6.30;4.50;;;;;;;-2.01;100.00;99800.14;109609;1250;74505;-70
2023/11/22 11:05:28;;;;;;;5.20;4.00;;;;;;;-2.07;100.00;99800.27;109633;1250;66661;-69
2023/11/22 11:08:02;;;;;;;4.70;4.00;;;;;;;-2.08;100.00;99796.00;109557;1251;71436;-70
2023/11/22 11:10:29;;;;;;;4.40;3.60;;;;;;;-2.08;100.00;99801.92;109566;1250;60864;-70
2023/11/22 11:12:56;;;;;;;3.50;3.10;;;;;;;-2.09;100.00;99799.73;109433;1251;60260;-69
2023/11/22 11:15:22;;;;;;;3.80;3.30;;;;;;;-2.07;100.00;99797.34;109420;1251;74601;-70